createdAt,value
2019-03-30T00:03:01.833Z,80.48
2019-03-30T00:07:03.812Z,80.65
2019-03-30T00:11:05.708Z,80.78
2019-03-30T00:15:07.747Z,80.70
2019-03-30T00:19:09.646Z,80.29
2019-03-30T00:23:11.531Z,80.65
2019-03-30T00:27:13.467Z,80.36
2019-03-30T00:31:15.378Z,80.03
2019-03-30T00:35:17.528Z,80.11
2019-03-30T00:39:19.434Z,80.04
2019-03-30T00:43:21.316Z,80.21
2019-03-30T00:47:23.208Z,80.18
2019-03-30T00:51:25.098Z,79.97
2019-03-30T00:55:26.995Z,79.86
2019-03-30T00:59:28.900Z,80.09
2019-03-30T01:03:30.790Z,80.41
2019-03-30T01:07:32.691Z,80.50
2019-03-30T01:11:34.587Z,80.61
2019-03-30T01:15:49.722Z,81.44
2019-03-30T01:20:02.341Z,81.92
2019-03-30T01:23:55.247Z,82.52
2019-03-30T01:27:57.144Z,82.90
2019-03-30T01:31:59.044Z,83.11
2019-03-30T01:36:01.109Z,82.44
2019-03-30T01:40:03.226Z,81.69
2019-03-30T01:44:05.199Z,81.85
2019-03-30T01:48:07.091Z,81.62
2019-03-30T01:52:09.038Z,81.03
2019-03-30T01:56:11.004Z,80.50
2019-03-30T02:00:13.859Z,80.59
2019-03-30T02:04:15.763Z,81.08
2019-03-30T02:08:17.656Z,81.13
2019-03-30T02:12:19.541Z,81.49
2019-03-30T02:16:21.444Z,81.75
2019-03-30T02:20:39.150Z,81.47
2019-03-30T02:24:41.046Z,81.26
2019-03-30T02:28:42.980Z,81.45
2019-03-30T02:32:44.880Z,81.68
2019-03-30T02:36:47.488Z,81.75
2019-03-30T02:40:49.422Z,81.62
2019-03-30T02:44:51.303Z,81.42
2019-03-30T02:48:53.213Z,81.58
2019-03-30T02:53:02.812Z,81.78
2019-03-30T02:57:04.801Z,81.63
2019-03-30T03:01:06.705Z,81.90
2019-03-30T03:05:09.613Z,81.59
2019-03-30T03:09:11.486Z,81.80
2019-03-30T03:13:13.389Z,81.74
2019-03-30T03:17:15.277Z,82.12
2019-03-30T03:21:17.170Z,82.57
2019-03-30T03:25:20.145Z,82.63
2019-03-30T03:29:22.034Z,82.60
2019-03-30T03:33:23.921Z,82.65
2019-03-30T03:37:43.380Z,82.56
2019-03-30T03:41:29.667Z,82.76
2019-03-30T03:45:31.573Z,82.75
2019-03-30T03:49:33.462Z,82.32
2019-03-30T03:53:36.570Z,82.59
2019-03-30T03:57:43.471Z,82.06
2019-03-30T04:01:47.679Z,81.74
2019-03-30T04:05:50.683Z,82.20
2019-03-30T04:10:37.696Z,82.45
2019-03-30T04:14:43.008Z,82.15
2019-03-30T04:18:47.949Z,82.21
2019-03-30T04:22:48.992Z,83.02
2019-03-30T04:26:50.901Z,83.35
2019-03-30T04:30:52.798Z,83.11
2019-03-30T04:34:54.695Z,83.04
2019-03-30T04:38:56.605Z,82.88
2019-03-30T04:42:58.601Z,82.88
2019-03-30T04:47:00.511Z,82.75
2019-03-30T04:51:02.424Z,83.13
2019-03-30T04:55:06.706Z,82.90
2019-03-30T04:59:08.604Z,82.48
2019-03-30T05:03:10.510Z,81.96
2019-03-30T05:07:12.407Z,82.03
2019-03-30T05:11:14.327Z,82.33
2019-03-30T05:15:16.478Z,82.26
2019-03-30T05:19:18.463Z,82.58
2019-03-30T05:23:20.423Z,82.80
2019-03-30T05:27:22.328Z,83.00
2019-03-30T05:31:24.229Z,83.40
2019-03-30T05:35:26.120Z,83.40
2019-03-30T05:39:28.022Z,83.56
2019-03-30T05:43:29.926Z,83.50
2019-03-30T05:47:31.848Z,84.32
2019-03-30T05:51:33.839Z,84.92
2019-03-30T05:55:35.795Z,85.15
2019-03-30T05:59:37.694Z,85.52
2019-03-30T06:03:40.565Z,85.52
2019-03-30T06:07:42.471Z,86.04
2019-03-30T06:11:44.432Z,86.08
2019-03-30T06:15:46.328Z,86.31
2019-03-30T06:19:48.239Z,86.31
2019-03-30T06:23:50.151Z,85.98
2019-03-30T06:27:52.114Z,86.37
2019-03-30T06:31:54.046Z,86.61
2019-03-30T06:35:55.971Z,86.96
2019-03-30T06:39:57.878Z,87.64
2019-03-30T06:43:59.793Z,88.04
2019-03-30T06:48:01.709Z,88.58
2019-03-30T06:52:03.646Z,88.67
2019-03-30T06:56:05.552Z,88.75
2019-03-30T07:00:09.352Z,89.47
2019-03-30T07:04:12.108Z,91.21
2019-03-30T07:08:16.394Z,91.61
2019-03-30T07:12:26.239Z,91.78
2019-03-30T07:16:31.298Z,91.85
2019-03-30T07:20:33.240Z,91.80
2019-03-30T07:24:35.159Z,91.49
2019-03-30T07:28:37.159Z,91.37
2019-03-30T07:32:39.064Z,91.17
2019-03-30T07:36:40.983Z,91.00
2019-03-30T07:40:42.885Z,90.69
2019-03-30T07:44:44.789Z,90.32
2019-03-30T07:48:47.865Z,90.14
2019-03-30T07:52:49.828Z,88.62
2019-03-30T07:57:04.288Z,88.13
2019-03-30T08:00:55.401Z,87.36
2019-03-30T08:04:57.329Z,86.19
2019-03-30T08:08:59.382Z,86.04
2019-03-30T08:13:01.278Z,84.39
2019-03-30T08:17:03.238Z,83.98
2019-03-30T08:21:05.209Z,83.10
2019-03-30T08:25:08.044Z,82.00
2019-03-30T08:29:09.984Z,80.97
2019-03-30T08:41:45.927Z,79.23
2019-03-30T08:45:49.061Z,78.55
2019-03-30T08:49:51.015Z,76.62
2019-03-30T08:53:55.113Z,74.61
2019-03-30T08:57:58.198Z,73.78
2019-03-30T09:02:00.126Z,73.11
2019-03-30T09:06:02.129Z,71.60
2019-03-30T09:10:06.544Z,72.33
2019-03-30T09:14:08.480Z,69.44
2019-03-30T09:18:10.410Z,68.48
2019-03-30T09:22:12.369Z,68.80
2019-03-30T09:26:16.664Z,66.72
2019-03-30T09:30:18.457Z,64.49
2019-03-30T09:34:20.403Z,62.06
2019-03-30T09:38:22.440Z,60.26
2019-03-30T09:42:24.424Z,59.37
2019-03-30T09:46:26.326Z,57.37
2019-03-30T09:50:28.246Z,56.49
2019-03-30T09:54:30.188Z,55.64
2019-03-30T09:58:32.126Z,54.87
2019-03-30T10:02:34.074Z,53.61
2019-03-30T10:06:36.043Z,52.06
2019-03-30T10:10:37.995Z,51.07
2019-03-30T10:14:39.941Z,50.18
2019-03-30T10:18:41.916Z,50.15
2019-03-30T10:22:44.839Z,48.84
2019-03-30T10:26:48.018Z,45.76
2019-03-30T10:30:49.926Z,47.18
2019-03-30T10:34:51.878Z,46.27
2019-03-30T10:38:54.086Z,45.92
2019-03-30T10:42:56.113Z,44.96
2019-03-30T10:46:58.064Z,43.50
2019-03-30T10:51:00.117Z,43.32
2019-03-30T10:55:02.086Z,43.81
2019-03-30T10:59:04.871Z,43.40
2019-03-30T11:03:07.183Z,41.75
2019-03-30T11:11:31.582Z,42.42
2019-03-30T11:15:34.329Z,41.55
2019-03-30T11:19:36.395Z,41.42
2019-03-30T11:23:38.315Z,39.27
2019-03-30T11:27:40.247Z,39.60
2019-03-30T11:31:42.276Z,40.11
2019-03-30T11:35:44.192Z,40.08
2019-03-30T11:39:46.192Z,39.44
2019-03-30T11:43:48.135Z,37.71
2019-03-30T11:47:50.059Z,35.41
2019-03-30T11:51:51.994Z,35.02
2019-03-30T11:55:53.916Z,34.20
2019-03-30T11:59:55.854Z,35.39
2019-03-30T12:03:57.776Z,34.71
2019-03-30T12:07:59.737Z,33.93
2019-03-30T12:12:02.306Z,33.23
2019-03-30T12:16:04.882Z,32.87
2019-03-30T12:20:08.713Z,31.03
2019-03-30T12:24:10.631Z,31.25
2019-03-30T12:28:12.563Z,31.17
2019-03-30T12:32:14.473Z,30.72
2019-03-30T12:36:16.403Z,31.10
2019-03-30T12:40:18.392Z,30.64
2019-03-30T12:44:20.314Z,30.43
2019-03-30T12:48:22.236Z,31.88
2019-03-30T12:52:26.483Z,30.53
2019-03-30T12:56:27.791Z,28.94
2019-03-30T13:00:29.692Z,29.64
2019-03-30T13:04:31.688Z,27.85
2019-03-30T13:08:33.607Z,26.58
2019-03-30T13:12:35.525Z,27.76
2019-03-30T13:16:37.452Z,26.96
2019-03-30T13:20:39.451Z,28.05
2019-03-30T13:24:41.373Z,26.70
2019-03-30T13:28:43.299Z,27.04
2019-03-30T13:32:45.389Z,27.36
2019-03-30T13:36:48.125Z,28.82
2019-03-30T13:40:50.050Z,27.32
2019-03-30T13:44:52.015Z,26.26
2019-03-30T13:48:53.945Z,25.94
2019-03-30T13:52:55.844Z,26.44
2019-03-30T13:56:57.757Z,26.53
2019-03-30T14:00:59.680Z,24.18
2019-03-30T14:05:01.818Z,23.86
2019-03-30T14:09:04.662Z,23.73
2019-03-30T14:13:06.795Z,24.53
2019-03-30T14:17:08.721Z,24.08
2019-03-30T14:21:10.642Z,23.85
2019-03-30T14:25:12.642Z,24.59
2019-03-30T14:29:14.629Z,25.40
2019-03-30T14:33:16.620Z,24.78
2019-03-30T14:37:18.533Z,25.18
2019-03-30T14:41:20.455Z,24.92
2019-03-30T14:45:22.372Z,25.15
2019-03-30T14:49:24.301Z,24.28
2019-03-30T14:53:26.329Z,24.57
2019-03-30T14:57:28.342Z,24.08
2019-03-30T15:01:30.249Z,24.04
2019-03-30T15:05:32.210Z,23.99
2019-03-30T15:09:34.110Z,23.91
2019-03-30T15:13:36.032Z,24.33
2019-03-30T15:17:40.611Z,23.96
2019-03-30T15:21:41.807Z,25.02
2019-03-30T15:25:43.716Z,24.04
2019-03-30T15:29:45.775Z,24.19
2019-03-30T15:33:48.222Z,24.43
2019-03-30T15:37:50.153Z,25.05
2019-03-30T15:41:52.078Z,25.03
2019-03-30T15:45:54.007Z,25.24
2019-03-30T15:49:55.926Z,25.69
2019-03-30T15:53:57.842Z,26.32
2019-03-30T15:57:59.776Z,25.65
2019-03-30T16:02:01.762Z,27.38
2019-03-30T16:06:03.682Z,26.59
2019-03-30T16:10:07.207Z,27.78
2019-03-30T16:14:09.120Z,27.74
2019-03-30T16:18:11.033Z,27.79
2019-03-30T16:22:13.018Z,26.97
2019-03-30T16:26:15.115Z,28.44
2019-03-30T16:30:18.226Z,28.51
2019-03-30T16:34:20.418Z,29.21
2019-03-30T16:38:22.414Z,30.69
2019-03-30T16:42:24.386Z,30.47
2019-03-30T16:46:26.299Z,32.13
2019-03-30T16:50:28.196Z,34.17
2019-03-30T16:54:30.116Z,33.95
2019-03-30T16:58:32.030Z,35.09
2019-03-30T17:02:33.961Z,36.27
2019-03-30T17:06:50.282Z,37.83
2019-03-30T17:10:52.452Z,37.22
2019-03-30T17:14:54.367Z,36.29
2019-03-30T17:18:56.287Z,39.70
2019-03-30T17:22:59.039Z,40.11
2019-03-30T17:27:01.680Z,40.71
2019-03-30T17:31:03.583Z,41.91
2019-03-30T17:35:07.303Z,43.03
2019-03-30T17:39:11.961Z,43.28
2019-03-30T17:43:13.875Z,44.47
2019-03-30T17:47:15.784Z,45.52
2019-03-30T17:51:17.691Z,46.77
2019-03-30T17:55:33.128Z,47.92
2019-03-30T17:59:24.424Z,48.60
2019-03-30T18:03:26.391Z,48.92
2019-03-30T18:07:28.313Z,49.89
2019-03-30T18:11:30.213Z,50.78
2019-03-30T18:15:34.732Z,51.48
2019-03-30T18:19:35.973Z,51.63
2019-03-30T18:23:37.914Z,52.47
2019-03-30T18:27:39.830Z,53.76
2019-03-30T18:31:42.541Z,54.25
2019-03-30T18:35:44.753Z,55.03
2019-03-30T18:39:47.029Z,55.71
2019-03-30T18:43:49.876Z,55.77
2019-03-30T18:47:52.211Z,55.89
2019-03-30T18:51:55.015Z,56.36
2019-03-30T18:55:56.926Z,57.48
2019-03-30T18:59:58.832Z,58.13
2019-03-30T19:04:00.727Z,58.40
2019-03-30T19:08:03.933Z,58.73
2019-03-30T19:12:05.993Z,60.20
2019-03-30T19:16:08.067Z,60.57
2019-03-30T19:20:10.570Z,60.92
2019-03-30T19:24:12.480Z,61.05
2019-03-30T19:28:14.374Z,60.88
2019-03-30T19:32:16.258Z,60.93
2019-03-30T19:36:18.168Z,60.92
2019-03-30T19:40:20.081Z,61.94
2019-03-30T19:44:21.960Z,62.33
2019-03-30T19:48:23.854Z,62.41
2019-03-30T19:52:39.321Z,62.27
2019-03-30T19:56:29.416Z,62.72
2019-03-30T20:00:31.397Z,62.84
2019-03-30T20:04:33.358Z,62.90
2019-03-30T20:08:35.251Z,63.10
2019-03-30T20:12:37.943Z,63.19
2019-03-30T20:16:42.205Z,63.73
2019-03-30T20:20:43.552Z,63.96
2019-03-30T20:24:45.453Z,64.07
2019-03-30T20:28:48.470Z,64.20
2019-03-30T20:32:50.364Z,64.46
2019-03-30T20:36:52.259Z,64.62
2019-03-30T20:40:54.231Z,65.25
2019-03-30T20:44:56.122Z,65.63
2019-03-30T20:48:58.022Z,66.22
2019-03-30T20:52:59.944Z,66.27
2019-03-30T20:57:01.845Z,67.03
2019-03-30T21:01:04.383Z,67.40
2019-03-30T21:05:08.283Z,67.64
2019-03-30T21:09:11.039Z,67.81
2019-03-30T21:13:12.942Z,67.94
2019-03-30T21:17:14.837Z,68.32
2019-03-30T21:21:16.735Z,68.43
2019-03-30T21:25:18.633Z,68.49
2019-03-30T21:29:20.512Z,68.90
2019-03-30T21:33:22.424Z,69.17
2019-03-30T21:37:24.342Z,69.54
2019-03-30T21:41:26.231Z,69.92
2019-03-30T21:45:28.218Z,70.18
2019-03-30T21:49:31.138Z,70.07
2019-03-30T21:53:33.176Z,70.10
2019-03-30T21:57:35.083Z,70.55
2019-03-30T22:01:36.983Z,70.79
2019-03-30T22:05:38.878Z,70.98
2019-03-30T22:09:41.526Z,70.87
2019-03-30T22:13:43.423Z,70.80
2019-03-30T22:17:45.318Z,70.90
2019-03-30T22:21:48.447Z,71.07
2019-03-30T22:25:50.347Z,71.24
2019-03-30T22:29:52.309Z,71.53
2019-03-30T22:33:54.203Z,71.92
2019-03-30T22:37:56.114Z,72.03
2019-03-30T22:41:58.009Z,72.33
2019-03-30T22:45:59.902Z,72.25
2019-03-30T22:50:01.789Z,72.03
2019-03-30T22:54:03.765Z,72.29
2019-03-30T22:58:05.652Z,72.55
2019-03-30T23:02:07.762Z,72.77
2019-03-30T23:06:09.676Z,72.76
2019-03-30T23:10:11.730Z,73.02
2019-03-30T23:14:13.627Z,73.43
2019-03-30T23:18:15.529Z,73.17
2019-03-30T23:22:17.422Z,73.32
2019-03-30T23:26:19.323Z,73.78
2019-03-30T23:30:21.221Z,73.84
2019-03-30T23:34:23.128Z,73.83
2019-03-30T23:38:25.023Z,73.79
2019-03-30T23:42:26.932Z,73.85
2019-03-30T23:46:28.828Z,74.08
2019-03-30T23:50:30.720Z,74.25
2019-03-30T23:54:32.629Z,74.39
2019-03-30T23:58:34.534Z,74.94
